Time,TemperatureF,DewpointF,PressureIn,WindDirection,WindDirectionDegrees,WindSpeedMPH,WindSpeedGustMPH,Humidity,HourlyPrecipIn,Conditions,Clouds,dailyrainin,SoftwareType,DateUTC
2013-03-21 00:03:00,67.0,-99.9,29.92,WNW,297,7.0,10.0,-999,-99.99,,,-99.99,,2013-03-21 04:03:00,
2013-03-21 00:13:00,67.0,-99.9,29.92,NW,311,9.0,11.0,-999,-99.99,,,-99.99,,2013-03-21 04:13:00,
2013-03-21 00:23:00,67.0,-99.9,29.92,NW,313,10.0,11.0,-999,-99.99,,,-99.99,,2013-03-21 04:23:00,
2013-03-21 00:33:00,66.0,-99.9,29.91,NW,317,11.0,12.0,-999,-99.99,,,-99.99,,2013-03-21 04:33:00,
2013-03-21 00:43:00,66.0,-99.9,29.91,NW,314,12.0,13.0,-999,-99.99,,,-99.99,,2013-03-21 04:43:00,
2013-03-21 00:53:00,67.0,-99.9,29.91,NW,313,11.0,13.0,-999,-99.99,,,-99.99,,2013-03-21 04:53:00,
2013-03-21 01:03:00,67.0,-99.9,29.91,NW,315,12.0,14.0,-999,-99.99,,,-99.99,,2013-03-21 05:03:00,
2013-03-21 01:13:00,66.0,-99.9,29.91,NW,314,13.0,13.0,-999,-99.99,,,-99.99,,2013-03-21 05:13:00,
2013-03-21 01:22:00,66.0,-99.9,29.91,NW,316,13.0,14.0,-999,-99.99,,,-99.99,,2013-03-21 05:22:00,
2013-03-21 01:33:00,66.0,-99.9,29.90,NW,315,13.0,14.0,-999,-99.99,,,-99.99,,2013-03-21 05:33:00,
2013-03-21 01:44:00,67.0,-99.9,29.90,NW,317,13.0,14.0,-999,-99.99,,,-99.99,,2013-03-21 05:44:00,
2013-03-21 01:52:00,66.0,-99.9,29.89,NW,318,15.0,16.0,-999,-99.99,,,-99.99,,2013-03-21 05:52:00,
2013-03-21 02:03:00,66.0,-99.9,29.89,NW,319,13.0,16.0,-999,-99.99,,,-99.99,,2013-03-21 06:03:00,
2013-03-21 02:12:00,66.0,-99.9,29.89,NW,316,14.0,15.0,-999,-99.99,,,-99.99,,2013-03-21 06:12:00,
2013-03-21 02:23:00,66.0,-99.9,29.89,NW,316,14.0,15.0,-999,-99.99,,,-99.99,,2013-03-21 06:23:00,
2013-03-21 02:32:00,66.0,-99.9,29.89,NW,312,13.0,15.0,-999,-99.99,,,-99.99,,2013-03-21 06:32:00,
2013-03-21 02:42:00,66.0,-99.9,29.89,NW,316,15.0,17.0,-999,-99.99,,,-99.99,,2013-03-21 06:42:00,
2013-03-21 02:52:00,66.0,-99.9,29.88,NW,315,15.0,18.0,-999,-99.99,,,-99.99,,2013-03-21 06:52:00,
2013-03-21 03:02:00,66.0,-99.9,29.89,NW,318,15.0,19.0,-999,-99.99,,,-99.99,,2013-03-21 07:02:00,
2013-03-21 03:13:00,66.0,-99.9,29.88,NW,318,16.0,18.0,-999,-99.99,,,-99.99,,2013-03-21 07:13:00,
2013-03-21 03:22:00,66.0,-99.9,29.88,NW,318,16.0,19.0,-999,-99.99,,,-99.99,,2013-03-21 07:22:00,
2013-03-21 03:33:00,66.0,-99.9,29.88,NW,326,16.0,18.0,-999,-99.99,,,-99.99,,2013-03-21 07:33:00,
2013-03-21 03:43:00,67.0,-99.9,29.88,NW,321,14.0,18.0,-999,-99.99,,,-99.99,,2013-03-21 07:43:00,
2013-03-21 03:53:00,66.0,-99.9,29.88,NNW,327,16.0,18.0,-999,-99.99,,,-99.99,,2013-03-21 07:53:00,
2013-03-21 04:02:00,66.0,-99.9,29.88,NNW,328,17.0,19.0,-999,-99.99,,,-99.99,,2013-03-21 08:02:00,
2013-03-21 04:13:00,66.0,-99.9,29.88,NNW,330,19.0,21.0,-999,-99.99,,,-99.99,,2013-03-21 08:13:00,
2013-03-21 04:23:00,66.0,-99.9,29.88,NW,325,18.0,20.0,-999,-99.99,,,-99.99,,2013-03-21 08:23:00,
2013-03-21 04:33:00,66.0,-99.9,29.88,NNW,329,19.0,22.0,-999,-99.99,,,-99.99,,2013-03-21 08:33:00,
2013-03-21 04:43:00,66.0,-99.9,29.87,NNW,328,19.0,21.0,-999,-99.99,,,-99.99,,2013-03-21 08:43:00,
2013-03-21 04:52:00,66.0,-99.9,29.87,NNW,328,16.0,20.0,-999,-99.99,,,-99.99,,2013-03-21 08:52:00,
2013-03-21 05:02:00,66.0,-99.9,29.87,NW,326,19.0,22.0,-999,-99.99,,,-99.99,,2013-03-21 09:02:00,
2013-03-21 05:11:00,66.0,-99.9,29.87,NNW,332,19.0,22.0,-999,-99.99,,,-99.99,,2013-03-21 09:11:00,
2013-03-21 05:22:00,66.0,-99.9,29.87,NNW,335,17.0,21.0,-999,-99.99,,,-99.99,,2013-03-21 09:22:00,
2013-03-21 05:33:00,67.0,-99.9,29.87,NNW,334,19.0,21.0,-999,-99.99,,,-99.99,,2013-03-21 09:33:00,
2013-03-21 05:43:00,67.0,-99.9,29.87,NNW,337,18.0,20.0,-999,-99.99,,,-99.99,,2013-03-21 09:43:00,
2013-03-21 05:53:00,67.0,-99.9,29.88,NNW,344,23.0,26.0,-999,-99.99,,,-99.99,,2013-03-21 09:53:00,
2013-03-21 06:03:00,66.0,-99.9,29.88,NNW,336,21.0,25.0,-999,-99.99,,,-99.99,,2013-03-21 10:03:00,
2013-03-21 06:12:00,66.0,-99.9,29.88,NNW,344,19.0,22.0,-999,-99.99,,,-99.99,,2013-03-21 10:12:00,
2013-03-21 06:23:00,65.0,-99.9,29.88,North,352,15.0,23.0,-999,-99.99,,,-99.99,,2013-03-21 10:23:00,
2013-03-21 06:34:00,64.0,-99.9,29.89,North,3,13.0,19.0,-999,-99.99,,,-99.99,,2013-03-21 10:34:00,
2013-03-21 06:43:00,64.0,-99.9,29.90,North,-999,12.0,16.0,-999,-99.99,,,-99.99,,2013-03-21 10:43:00,
2013-03-21 06:53:00,63.0,-99.9,29.90,North,358,10.0,12.0,-999,-99.99,,,-99.99,,2013-03-21 10:53:00,
2013-03-21 07:03:00,63.0,-99.9,29.91,North,360,8.0,12.0,-999,-99.99,,,-99.99,,2013-03-21 11:03:00,
2013-03-21 07:13:00,63.0,-99.9,29.91,North,359,9.0,12.0,-999,-99.99,,,-99.99,,2013-03-21 11:13:00,
2013-03-21 07:23:00,62.0,-99.9,29.91,North,-999,10.0,14.0,-999,-99.99,,,-99.99,,2013-03-21 11:23:00,
2013-03-21 07:33:00,62.0,-99.9,29.92,North,3,7.0,10.0,-999,-99.99,,,-99.99,,2013-03-21 11:33:00,
2013-03-21 07:43:00,62.0,-99.9,29.92,North,358,9.0,11.0,-999,-99.99,,,-99.99,,2013-03-21 11:43:00,
2013-03-21 07:53:00,61.0,-99.9,29.92,North,10,7.0,10.0,-999,-99.99,,,-99.99,,2013-03-21 11:53:00,
2013-03-21 08:03:00,61.0,-99.9,29.93,North,8,9.0,13.0,-999,-99.99,,,-99.99,,2013-03-21 12:03:00,
2013-03-21 08:13:00,60.0,-99.9,29.93,NNE,23,8.0,11.0,-999,-99.99,,,-99.99,,2013-03-21 12:13:00,
2013-03-21 08:22:00,60.0,-99.9,29.94,North,5,10.0,13.0,-999,-99.99,,,-99.99,,2013-03-21 12:22:00,
2013-03-21 08:33:00,60.0,-99.9,29.94,North,6,9.0,14.0,-999,-99.99,,,-99.99,,2013-03-21 12:33:00,
2013-03-21 08:44:00,60.0,-99.9,29.95,North,4,8.0,11.0,-999,-99.99,,,-99.99,,2013-03-21 12:44:00,
2013-03-21 08:53:00,61.0,-99.9,29.96,North,360,9.0,12.0,-999,-99.99,,,-99.99,,2013-03-21 12:53:00,
2013-03-21 09:03:00,61.0,-99.9,29.96,NNE,13,8.0,14.0,-999,-99.99,,,-99.99,,2013-03-21 13:03:00,
2013-03-21 09:12:00,61.0,-99.9,29.96,North,9,9.0,13.0,-999,-99.99,,,-99.99,,2013-03-21 13:12:00,
2013-03-21 09:22:00,61.0,-99.9,29.96,NNE,12,11.0,14.0,-999,-99.99,,,-99.99,,2013-03-21 13:22:00,
2013-03-21 09:33:00,61.0,-99.9,29.96,NNE,13,14.0,19.0,-999,-99.99,,,-99.99,,2013-03-21 13:33:00,
2013-03-21 09:43:00,62.0,-99.9,29.97,NNE,28,11.0,14.0,-999,-99.99,,,-99.99,,2013-03-21 13:43:00,
2013-03-21 09:53:00,62.0,-99.9,29.97,NNE,21,11.0,15.0,-999,-99.99,,,-99.99,,2013-03-21 13:53:00,
2013-03-21 10:02:00,62.0,-99.9,29.98,North,9,11.0,15.0,-999,-99.99,,,-99.99,,2013-03-21 14:02:00,
2013-03-21 10:12:00,62.0,-99.9,29.98,NNE,22,11.0,15.0,-999,-99.99,,,-99.99,,2013-03-21 14:12:00,
2013-03-21 10:22:00,62.0,-99.9,29.98,NNE,19,10.0,13.0,-999,-99.99,,,-99.99,,2013-03-21 14:22:00,
2013-03-21 10:32:00,63.0,-99.9,29.99,NNE,23,6.0,11.0,-999,-99.99,,,-99.99,,2013-03-21 14:32:00,
2013-03-21 10:43:00,63.0,-99.9,29.99,NNE,28,7.0,11.0,-999,-99.99,,,-99.99,,2013-03-21 14:43:00,
2013-03-21 10:52:00,63.0,-99.9,29.99,North,9,9.0,13.0,-999,-99.99,,,-99.99,,2013-03-21 14:52:00,
2013-03-21 11:04:00,64.0,-99.9,29.98,North,3,9.0,13.0,-999,-99.99,,,-99.99,,2013-03-21 15:04:00,
2013-03-21 11:13:00,64.0,-99.9,29.98,NE,50,6.0,15.0,-999,-99.99,,,-99.99,,2013-03-21 15:13:00,
2013-03-21 11:22:00,64.0,-99.9,29.98,NE,55,8.0,11.0,-999,-99.99,,,-99.99,,2013-03-21 15:22:00,
2013-03-21 11:33:00,64.0,-99.9,29.97,NE,37,8.0,12.0,-999,-99.99,,,-99.99,,2013-03-21 15:33:00,
2013-03-21 11:43:00,64.0,-99.9,29.97,NNE,19,11.0,15.0,-999,-99.99,,,-99.99,,2013-03-21 15:43:00,
2013-03-21 11:53:00,65.0,-99.9,29.97,NE,39,8.0,13.0,-999,-99.99,,,-99.99,,2013-03-21 15:53:00,
2013-03-21 12:03:00,65.0,-99.9,29.98,NE,41,6.0,12.0,-999,-99.99,,,-99.99,,2013-03-21 16:03:00,
2013-03-21 12:13:00,65.0,-99.9,29.98,North,2,11.0,13.0,-999,-99.99,,,-99.99,,2013-03-21 16:13:00,
2013-03-21 12:23:00,65.0,-99.9,29.98,North,8,10.0,13.0,-999,-99.99,,,-99.99,,2013-03-21 16:23:00,
2013-03-21 12:33:00,66.0,-99.9,29.98,NNE,23,5.0,9.0,-999,-99.99,,,-99.99,,2013-03-21 16:33:00,
2013-03-21 12:43:00,65.0,-99.9,29.98,North,4,7.0,12.0,-999,-99.99,,,-99.99,,2013-03-21 16:43:00,
2013-03-21 12:53:00,67.0,-99.9,29.97,East,80,5.0,9.0,-999,-99.99,,,-99.99,,2013-03-21 16:53:00,
2013-03-21 13:03:00,67.0,-99.9,29.97,NNW,346,9.0,12.0,-999,-99.99,,,-99.99,,2013-03-21 17:03:00,
2013-03-21 13:12:00,67.0,-99.9,29.97,North,3,5.0,9.0,-999,-99.99,,,-99.99,,2013-03-21 17:12:00,
2013-03-21 13:23:00,67.0,-99.9,29.97,NNW,346,6.0,12.0,-999,-99.99,,,-99.99,,2013-03-21 17:23:00,
2013-03-21 13:33:00,66.0,-99.9,29.97,NW,319,8.0,10.0,-999,-99.99,,,-99.99,,2013-03-21 17:33:00,
2013-03-21 13:43:00,66.0,-99.9,29.96,NW,321,11.0,13.0,-999,-99.99,,,-99.99,,2013-03-21 17:43:00,
2013-03-21 13:53:00,66.0,-99.9,29.96,NW,312,11.0,13.0,-999,-99.99,,,-99.99,,2013-03-21 17:53:00,
2013-03-21 14:02:00,66.0,-99.9,29.96,NW,318,13.0,15.0,-999,-99.99,,,-99.99,,2013-03-21 18:02:00,
2013-03-21 14:12:00,66.0,-99.9,29.95,NW,319,15.0,17.0,-999,-99.99,,,-99.99,,2013-03-21 18:12:00,
2013-03-21 14:23:00,65.0,-99.9,29.95,NW,323,14.0,17.0,-999,-99.99,,,-99.99,,2013-03-21 18:23:00,
2013-03-21 14:32:00,65.0,-99.9,29.94,NW,321,14.0,15.0,-999,-99.99,,,-99.99,,2013-03-21 18:32:00,
2013-03-21 14:43:00,66.0,-99.9,29.94,NW,320,15.0,16.0,-999,-99.99,,,-99.99,,2013-03-21 18:43:00,
2013-03-21 14:53:00,66.0,-99.9,29.94,NW,321,16.0,17.0,-999,-99.99,,,-99.99,,2013-03-21 18:53:00,
2013-03-21 15:03:00,66.0,-99.9,29.93,NW,322,15.0,17.0,-999,-99.99,,,-99.99,,2013-03-21 19:03:00,
2013-03-21 15:12:00,66.0,-99.9,29.93,NW,320,12.0,17.0,-999,-99.99,,,-99.99,,2013-03-21 19:12:00,
2013-03-21 15:23:00,66.0,-99.9,29.92,NW,320,14.0,15.0,-999,-99.99,,,-99.99,,2013-03-21 19:23:00,
2013-03-21 15:32:00,66.0,-99.9,29.92,NW,317,14.0,16.0,-999,-99.99,,,-99.99,,2013-03-21 19:32:00,
2013-03-21 15:43:00,66.0,-99.9,29.92,NW,318,16.0,18.0,-999,-99.99,,,-99.99,,2013-03-21 19:43:00,
2013-03-21 15:53:00,66.0,-99.9,29.92,NW,321,15.0,18.0,-999,-99.99,,,-99.99,,2013-03-21 19:53:00,
2013-03-21 16:02:00,66.0,-99.9,29.92,NW,319,17.0,19.0,-999,-99.99,,,-99.99,,2013-03-21 20:02:00,
2013-03-21 16:13:00,66.0,-99.9,29.91,NW,322,16.0,19.0,-999,-99.99,,,-99.99,,2013-03-21 20:13:00,
2013-03-21 16:23:00,66.0,-99.9,29.91,NW,322,15.0,18.0,-999,-99.99,,,-99.99,,2013-03-21 20:23:00,
2013-03-21 16:33:00,66.0,-99.9,29.92,NW,316,16.0,17.0,-999,-99.99,,,-99.99,,2013-03-21 20:33:00,
2013-03-21 16:43:00,67.0,-99.9,29.92,NW,312,15.0,17.0,-999,-99.99,,,-99.99,,2013-03-21 20:43:00,
2013-03-21 16:53:00,67.0,-99.9,29.92,NW,312,14.0,17.0,-999,-99.99,,,-99.99,,2013-03-21 20:53:00,
2013-03-21 17:03:00,67.0,-99.9,29.92,NW,309,14.0,16.0,-999,-99.99,,,-99.99,,2013-03-21 21:03:00,
2013-03-21 17:12:00,67.0,-99.9,29.92,NW,311,14.0,17.0,-999,-99.99,,,-99.99,,2013-03-21 21:12:00,
2013-03-21 17:23:00,67.0,-99.9,29.92,NW,316,16.0,17.0,-999,-99.99,,,-99.99,,2013-03-21 21:23:00,
2013-03-21 17:33:00,67.0,-99.9,29.92,NW,315,16.0,19.0,-999,-99.99,,,-99.99,,2013-03-21 21:33:00,
2013-03-21 17:43:00,65.0,-99.9,29.92,NW,313,17.0,19.0,-999,-99.99,,,-99.99,,2013-03-21 21:43:00,
2013-03-21 17:53:00,65.0,-99.9,29.92,NW,314,17.0,19.0,-999,-99.99,,,-99.99,,2013-03-21 21:53:00,
2013-03-21 18:03:00,65.0,-99.9,29.92,NW,310,17.0,18.0,-999,-99.99,,,-99.99,,2013-03-21 22:03:00,
2013-03-21 18:13:00,65.0,-99.9,29.92,NW,312,17.0,19.0,-999,-99.99,,,-99.99,,2013-03-21 22:13:00,
2013-03-21 18:23:00,65.0,-99.9,29.92,NW,317,17.0,19.0,-999,-99.99,,,-99.99,,2013-03-21 22:23:00,
2013-03-21 18:34:00,65.0,-99.9,29.92,NW,314,17.0,19.0,-999,-99.99,,,-99.99,,2013-03-21 22:34:00,
2013-03-21 18:43:00,65.0,-99.9,29.92,NW,318,15.0,17.0,-999,-99.99,,,-99.99,,2013-03-21 22:43:00,
2013-03-21 18:53:00,65.0,-99.9,29.92,NW,318,15.0,17.0,-999,-99.99,,,-99.99,,2013-03-21 22:53:00,
2013-03-21 19:03:00,65.0,-99.9,29.93,NW,317,15.0,17.0,-999,-99.99,,,-99.99,,2013-03-21 23:03:00,
2013-03-21 19:12:00,65.0,-99.9,29.93,NW,318,14.0,17.0,-999,-99.99,,,-99.99,,2013-03-21 23:12:00,
2013-03-21 19:22:00,65.0,-99.9,29.93,NW,313,15.0,17.0,-999,-99.99,,,-99.99,,2013-03-21 23:22:00,
2013-03-21 19:33:00,65.0,-99.9,29.93,NW,316,14.0,15.0,-999,-99.99,,,-99.99,,2013-03-21 23:33:00,
2013-03-21 19:43:00,65.0,-99.9,29.93,NW,313,14.0,15.0,-999,-99.99,,,-99.99,,2013-03-21 23:43:00,
2013-03-21 19:53:00,65.0,-99.9,29.94,NW,314,14.0,16.0,-999,-99.99,,,-99.99,,2013-03-21 23:53:00,
2013-03-21 20:03:00,65.0,-99.9,29.94,NW,317,14.0,16.0,-999,-99.99,,,-99.99,,2013-03-22 00:03:00,
2013-03-21 20:13:00,65.0,-99.9,29.93,NW,323,14.0,16.0,-999,-99.99,,,-99.99,,2013-03-22 00:13:00,
2013-03-21 20:22:00,65.0,-99.9,29.93,NW,322,14.0,16.0,-999,-99.99,,,-99.99,,2013-03-22 00:22:00,
2013-03-21 20:32:00,64.0,-99.9,29.93,NW,320,15.0,17.0,-999,-99.99,,,-99.99,,2013-03-22 00:32:00,
2013-03-21 20:42:00,65.0,-99.9,29.94,NW,318,15.0,17.0,-999,-99.99,,,-99.99,,2013-03-22 00:42:00,
2013-03-21 20:52:00,65.0,-99.9,29.94,NW,321,13.0,15.0,-999,-99.99,,,-99.99,,2013-03-22 00:52:00,
2013-03-21 21:03:00,65.0,-99.9,29.95,NW,320,13.0,16.0,-999,-99.99,,,-99.99,,2013-03-22 01:03:00,
2013-03-21 21:12:00,65.0,-99.9,29.95,NW,321,13.0,16.0,-999,-99.99,,,-99.99,,2013-03-22 01:12:00,
2013-03-21 21:22:00,65.0,-99.9,29.95,NW,320,13.0,15.0,-999,-99.99,,,-99.99,,2013-03-22 01:22:00,
2013-03-21 21:33:00,65.0,-99.9,29.95,NW,321,13.0,16.0,-999,-99.99,,,-99.99,,2013-03-22 01:33:00,
2013-03-21 21:43:00,65.0,-99.9,29.95,NNW,328,12.0,14.0,-999,-99.99,,,-99.99,,2013-03-22 01:43:00,
2013-03-21 21:53:00,65.0,-99.9,29.96,NNW,328,14.0,15.0,-999,-99.99,,,-99.99,,2013-03-22 01:53:00,
2013-03-21 22:03:00,65.0,-99.9,29.96,NNW,333,13.0,15.0,-999,-99.99,,,-99.99,,2013-03-22 02:03:00,
2013-03-21 22:12:00,65.0,-99.9,29.96,NNW,327,11.0,13.0,-999,-99.99,,,-99.99,,2013-03-22 02:12:00,
2013-03-21 22:22:00,65.0,-99.9,29.96,NNW,327,12.0,14.0,-999,-99.99,,,-99.99,,2013-03-22 02:22:00,
2013-03-21 22:32:00,65.0,-99.9,29.97,NW,324,13.0,15.0,-999,-99.99,,,-99.99,,2013-03-22 02:32:00,
2013-03-21 22:43:00,65.0,-99.9,29.97,NNW,329,13.0,14.0,-999,-99.99,,,-99.99,,2013-03-22 02:43:00,
2013-03-21 22:53:00,65.0,-99.9,29.97,NNW,332,11.0,13.0,-999,-99.99,,,-99.99,,2013-03-22 02:53:00,
2013-03-21 23:02:00,65.0,-99.9,29.97,NNW,339,12.0,14.0,-999,-99.99,,,-99.99,,2013-03-22 03:02:00,
2013-03-21 23:12:00,65.0,-99.9,29.97,NNW,336,13.0,15.0,-999,-99.99,,,-99.99,,2013-03-22 03:12:00,
2013-03-21 23:22:00,65.0,-99.9,29.97,NNW,334,12.0,14.0,-999,-99.99,,,-99.99,,2013-03-22 03:22:00,
2013-03-21 23:33:00,64.0,-99.9,29.97,North,358,8.0,15.0,-999,-99.99,,,-99.99,,2013-03-22 03:33:00,
2013-03-21 23:43:00,64.0,-99.9,29.97,North,5,6.0,8.0,-999,-99.99,,,-99.99,,2013-03-22 03:43:00,
2013-03-21 23:53:00,62.0,-99.9,29.97,NE,42,4.0,6.0,-999,-99.99,,,-99.99,,2013-03-22 03:53:00,